createdAt,value
2022-09-07T00:02:33.423Z,22.65
2022-09-07T00:06:55.654Z,23.92
2022-09-07T00:11:19.732Z,24.00
2022-09-07T00:15:41.552Z,31.05
2022-09-07T00:20:06.013Z,29.48
2022-09-07T00:24:27.972Z,30.48
2022-09-07T00:28:51.093Z,30.90
2022-09-07T00:33:13.033Z,28.52
2022-09-07T00:37:35.174Z,27.63
2022-09-07T00:41:57.073Z,30.05
2022-09-07T00:46:26.132Z,31.63
2022-09-07T00:50:56.172Z,32.08
2022-09-07T00:55:19.484Z,31.35
2022-09-07T00:59:50.532Z,30.25
2022-09-07T01:04:13.452Z,30.10
2022-09-07T01:08:36.153Z,28.10
2022-09-07T01:13:00.073Z,29.13
2022-09-07T01:17:37.273Z,30.75
2022-09-07T01:22:34.474Z,28.85
2022-09-07T01:27:47.174Z,29.80
2022-09-07T01:32:23.633Z,28.25
2022-09-07T01:37:05.215Z,31.27
2022-09-07T01:41:43.575Z,29.65
2022-09-07T01:46:30.559Z,31.60
2022-09-07T01:51:02.774Z,33.58
2022-09-07T01:55:46.812Z,31.05
2022-09-07T02:00:15.625Z,31.77
2022-09-07T02:05:03.459Z,35.83
2022-09-07T02:09:34.592Z,33.13
2022-09-07T02:14:34.200Z,33.13
2022-09-07T02:19:12.973Z,39.17
2022-09-07T02:24:00.172Z,43.05
2022-09-07T02:28:29.517Z,39.72
2022-09-07T02:32:51.813Z,48.85
2022-09-07T02:37:17.253Z,44.50
2022-09-07T02:41:44.793Z,47.13
2022-09-07T02:46:25.749Z,42.60
2022-09-07T02:51:20.733Z,42.25
2022-09-07T02:56:52.676Z,37.25
2022-09-07T03:02:11.215Z,41.15
2022-09-07T03:06:40.953Z,42.80
2022-09-07T03:11:05.513Z,39.70
2022-09-07T03:15:28.568Z,39.92
2022-09-07T03:19:50.712Z,39.40
2022-09-07T03:24:12.874Z,39.25
2022-09-07T03:28:35.098Z,40.17
2022-09-07T03:32:56.974Z,39.05
2022-09-07T03:37:18.833Z,38.75
2022-09-07T03:41:40.793Z,38.33
2022-09-07T03:46:06.493Z,39.70
2022-09-07T03:50:29.335Z,38.65
2022-09-07T03:54:51.463Z,39.72
2022-09-07T03:59:13.753Z,39.08
2022-09-07T04:03:36.973Z,38.72
2022-09-07T04:07:59.154Z,39.10
2022-09-07T04:12:21.233Z,39.25
2022-09-07T04:16:45.626Z,37.42
2022-09-07T04:21:07.959Z,41.17
2022-09-07T04:25:30.486Z,37.17
2022-09-07T04:29:52.863Z,39.80
2022-09-07T04:34:15.480Z,37.25
2022-09-07T04:38:37.784Z,36.53
2022-09-07T04:43:00.045Z,36.53
2022-09-07T04:47:22.544Z,35.67
2022-09-07T04:51:44.943Z,32.67
2022-09-07T04:56:07.584Z,35.67
2022-09-07T05:00:30.044Z,30.23
2022-09-07T05:04:52.564Z,25.88
2022-09-07T05:09:14.885Z,22.02
2022-09-07T05:13:37.328Z,18.38
2022-09-07T05:17:59.844Z,17.05
2022-09-07T05:22:22.864Z,17.65
2022-09-07T05:26:45.257Z,15.70
2022-09-07T05:35:36.887Z,12.00
2022-09-07T05:39:59.368Z,11.60
2022-09-07T05:49:05.106Z,11.68
2022-09-07T05:53:28.087Z,11.80
2022-09-07T05:57:50.625Z,9.70
2022-09-07T06:02:15.579Z,8.13
2022-09-07T06:06:39.388Z,8.32
2022-09-07T06:11:11.033Z,6.65
2022-09-07T06:15:34.405Z,6.70
2022-09-07T06:19:57.466Z,5.72
2022-09-07T06:24:19.851Z,6.10
2022-09-07T06:28:48.908Z,5.50
2022-09-07T06:33:11.890Z,4.55
2022-09-07T06:37:34.451Z,4.70
2022-09-07T06:51:20.091Z,3.90
2022-09-07T06:55:45.794Z,3.85
2022-09-07T07:00:08.647Z,3.88
2022-09-07T07:04:32.390Z,3.65
2022-09-07T07:08:56.469Z,3.75
2022-09-07T07:17:41.030Z,3.45
2022-09-07T07:26:48.912Z,4.47
2022-09-07T07:31:13.330Z,4.10
2022-09-07T07:35:35.864Z,3.38
2022-09-07T07:44:36.103Z,3.22
2022-09-07T07:48:59.064Z,3.60
2022-09-07T07:58:05.290Z,3.42
2022-09-07T08:02:27.910Z,3.17
2022-09-07T08:06:50.530Z,3.78
2022-09-07T08:11:17.829Z,3.70
2022-09-07T08:15:46.892Z,3.17
2022-09-07T08:20:10.189Z,3.28
2022-09-07T08:24:33.030Z,3.58
2022-09-07T08:28:55.743Z,3.80
2022-09-07T08:33:18.122Z,5.63
2022-09-07T08:37:40.531Z,4.35
2022-09-07T08:42:43.242Z,3.33
2022-09-07T08:47:37.711Z,4.40
2022-09-07T08:52:26.059Z,4.10
2022-09-07T09:01:42.510Z,4.10
2022-09-07T09:06:42.017Z,3.85
2022-09-07T09:11:44.796Z,4.68
2022-09-07T09:16:35.811Z,4.25
2022-09-07T09:21:00.444Z,4.22
2022-09-07T09:25:31.910Z,3.75
2022-09-07T09:29:54.630Z,3.67
2022-09-07T09:34:23.910Z,3.70
2022-09-07T09:38:47.730Z,3.55
2022-09-07T09:43:24.190Z,3.35
2022-09-07T09:47:53.183Z,3.30
2022-09-07T09:52:30.222Z,3.03
2022-09-07T09:56:53.910Z,3.58
2022-09-07T10:01:31.063Z,3.30
2022-09-07T10:05:54.770Z,3.67
2022-09-07T10:10:17.474Z,2.90
2022-09-07T10:14:44.629Z,3.25
2022-09-07T10:19:21.590Z,3.17
2022-09-07T10:23:44.082Z,2.80
2022-09-07T10:28:16.071Z,3.13
2022-09-07T10:33:06.885Z,2.63
2022-09-07T10:37:56.444Z,2.42
2022-09-07T10:42:38.850Z,3.30
2022-09-07T10:47:43.870Z,3.13
2022-09-07T10:52:49.620Z,3.42
2022-09-07T10:59:01.515Z,2.85
2022-09-07T11:04:04.753Z,2.92
2022-09-07T11:14:01.751Z,2.80
2022-09-07T11:18:33.731Z,2.63
2022-09-07T11:23:15.122Z,2.72
2022-09-07T11:27:56.798Z,2.83
2022-09-07T11:32:31.532Z,2.88
2022-09-07T11:37:21.193Z,3.38
2022-09-07T11:47:34.282Z,2.75
2022-09-07T11:52:05.569Z,2.50
2022-09-07T11:56:36.892Z,2.40
2022-09-07T12:01:10.809Z,2.67
2022-09-07T12:05:43.331Z,2.75
2022-09-07T12:10:39.741Z,3.38
2022-09-07T12:15:35.536Z,2.75
2022-09-07T12:20:24.151Z,3.72
2022-09-07T12:24:53.782Z,3.03
2022-09-07T12:29:24.332Z,3.47
2022-09-07T12:33:46.814Z,3.70
2022-09-07T12:38:17.589Z,3.03
2022-09-07T12:42:40.030Z,3.67
2022-09-07T12:47:12.890Z,4.05
2022-09-07T12:56:37.130Z,3.50
2022-09-07T13:01:19.671Z,3.40
2022-09-07T13:11:36.029Z,2.90
2022-09-07T13:16:07.756Z,2.92
2022-09-07T13:20:36.150Z,3.28
2022-09-07T13:25:28.635Z,2.58
2022-09-07T13:30:16.504Z,2.40
2022-09-07T13:35:06.010Z,2.47
2022-09-07T13:39:41.217Z,2.25
2022-09-07T13:44:06.188Z,2.22
2022-09-07T13:48:52.710Z,2.63
2022-09-07T13:53:42.549Z,2.25
2022-09-07T13:58:38.616Z,2.38
2022-09-07T14:03:07.359Z,2.58
2022-09-07T14:07:31.761Z,2.13
2022-09-07T14:11:55.158Z,2.22
2022-09-07T14:16:17.778Z,2.20
2022-09-07T14:20:52.769Z,2.20
2022-09-07T14:25:22.976Z,2.22
2022-09-07T14:29:45.430Z,1.73
2022-09-07T14:34:09.900Z,2.45
2022-09-07T14:43:35.250Z,2.17
2022-09-07T14:47:57.751Z,2.50
2022-09-07T14:52:30.012Z,2.03
2022-09-07T14:57:30.676Z,2.00
2022-09-07T15:02:18.909Z,2.03
2022-09-07T15:11:33.495Z,2.42
2022-09-07T15:16:03.804Z,2.28
2022-09-07T15:20:44.421Z,1.95
2022-09-07T15:25:08.716Z,2.15
2022-09-07T15:29:31.608Z,1.77
2022-09-07T15:33:54.330Z,1.77
2022-09-07T15:43:11.467Z,2.10
2022-09-07T15:47:43.544Z,2.40
2022-09-07T15:52:09.748Z,2.13
2022-09-07T15:56:32.191Z,2.60
2022-09-07T16:01:51.580Z,2.42
2022-09-07T16:05:40.389Z,2.22
2022-09-07T16:10:05.067Z,2.67
2022-09-07T16:14:27.383Z,2.63
2022-09-07T16:18:50.153Z,2.83
2022-09-07T16:23:15.592Z,3.40
2022-09-07T16:27:41.256Z,4.63
2022-09-07T16:36:50.192Z,10.07
2022-09-07T16:41:27.363Z,11.80
2022-09-07T16:46:05.531Z,14.88
2022-09-07T16:50:27.613Z,16.38
2022-09-07T16:54:53.484Z,16.33
2022-09-07T16:59:17.549Z,16.10
2022-09-07T17:03:40.670Z,15.60
2022-09-07T17:08:04.181Z,15.27
2022-09-07T17:12:26.930Z,14.05
2022-09-07T17:16:49.682Z,14.55
2022-09-07T17:21:12.371Z,13.55
2022-09-07T17:25:34.782Z,13.18
2022-09-07T17:29:57.469Z,11.35
2022-09-07T17:34:20.310Z,12.07
2022-09-07T17:43:45.410Z,11.43
2022-09-07T17:48:08.109Z,10.15
2022-09-07T17:52:31.909Z,11.50
2022-09-07T17:56:54.612Z,11.85
2022-09-07T18:01:20.630Z,11.40
2022-09-07T18:05:43.279Z,11.05
2022-09-07T18:10:05.931Z,12.50
2022-09-07T18:14:30.386Z,12.18
2022-09-07T18:18:54.291Z,11.90
2022-09-07T18:23:17.070Z,10.70
2022-09-07T18:27:40.445Z,10.80
2022-09-07T18:32:09.516Z,11.40
2022-09-07T18:36:32.349Z,10.50
2022-09-07T18:41:09.289Z,9.70
2022-09-07T18:45:31.791Z,9.93
2022-09-07T18:49:55.051Z,9.30
2022-09-07T18:54:17.711Z,9.48
2022-09-07T18:58:42.185Z,10.25
2022-09-07T19:03:05.090Z,8.95
2022-09-07T19:07:29.841Z,11.35
2022-09-07T19:11:52.349Z,10.73
2022-09-07T19:16:19.626Z,10.52
2022-09-07T19:20:42.070Z,9.88
2022-09-07T19:25:06.371Z,9.75
2022-09-07T19:29:29.622Z,9.90
2022-09-07T19:34:03.407Z,9.77
2022-09-07T19:38:25.618Z,10.48
2022-09-07T19:42:47.992Z,10.25
2022-09-07T19:47:10.731Z,10.30
2022-09-07T19:51:36.728Z,9.10
2022-09-07T19:56:13.295Z,8.90
2022-09-07T20:00:38.404Z,9.50
2022-09-07T20:05:00.725Z,9.02
2022-09-07T20:09:23.232Z,9.88
2022-09-07T20:13:46.270Z,9.15
2022-09-07T20:18:08.785Z,8.80
2022-09-07T20:22:34.522Z,9.10
2022-09-07T20:26:56.710Z,9.02
2022-09-07T20:31:19.325Z,9.30
2022-09-07T20:35:43.930Z,9.90
2022-09-07T20:40:07.520Z,8.98
2022-09-07T20:44:30.151Z,9.82
2022-09-07T20:48:52.570Z,9.93
2022-09-07T20:53:15.634Z,9.73
2022-09-07T20:57:38.291Z,9.50
2022-09-07T21:02:00.541Z,8.80
2022-09-07T21:06:25.630Z,8.02
2022-09-07T21:10:48.531Z,8.70
2022-09-07T21:15:11.094Z,8.80
2022-09-07T21:19:33.891Z,9.18
2022-09-07T21:24:03.451Z,8.88
2022-09-07T21:28:27.763Z,9.32
2022-09-07T21:32:52.464Z,8.32
2022-09-07T21:37:15.052Z,8.30
2022-09-07T21:41:38.152Z,8.15
2022-09-07T21:46:09.916Z,8.00
2022-09-07T21:50:32.410Z,8.65
2022-09-07T21:54:55.430Z,8.05
2022-09-07T21:59:20.390Z,7.10
2022-09-07T22:03:46.646Z,8.00
2022-09-07T22:08:10.426Z,8.55
2022-09-07T22:12:32.805Z,7.60
2022-09-07T22:16:55.486Z,7.13
2022-09-07T22:21:23.085Z,7.18
2022-09-07T22:25:53.459Z,8.10
2022-09-07T22:30:15.986Z,7.85
2022-09-07T22:34:38.367Z,7.65
2022-09-07T22:39:06.670Z,6.85
2022-09-07T22:43:29.395Z,6.95
2022-09-07T22:47:52.005Z,6.57
2022-09-07T22:52:14.826Z,7.18
2022-09-07T22:56:38.565Z,6.40
2022-09-07T23:01:01.325Z,6.72
2022-09-07T23:05:23.525Z,7.07
2022-09-07T23:09:46.005Z,6.72
2022-09-07T23:14:19.966Z,6.20
2022-09-07T23:18:49.549Z,5.82
2022-09-07T23:23:13.644Z,5.55
2022-09-07T23:27:36.993Z,5.30
2022-09-07T23:31:59.405Z,5.60
2022-09-07T23:36:22.265Z,6.13
2022-09-07T23:40:44.686Z,5.88
2022-09-07T23:45:09.005Z,5.30
2022-09-07T23:49:31.625Z,5.05
2022-09-07T23:53:54.166Z,5.97
2022-09-07T23:58:17.366Z,5.78
